In Rescue
 
Open Full Screen Window  High Contrast Mode
Wind Gusting 16 knots
12
November 29, 2022 10:24 AM EST
Present Weather: Mist
Weather Information
Wind Direction
  170 °
Wind Speed
  12 kt (14 mph)
Wind Gust
  16 kt (18 mph)
Altimeter
29.73 in
Visibility
5 SM
Temperature
03° C
37° F
Dewpoint
02° C
36° F
Humidity
93%
1hr Rain Fall
00.00 in.
24hr Rain Fall
00.00 in.
Sky Condition
Overcast @ 900 ft
IFR

METAR KSAW 291524Z AUTO 17012G16KT 5SM BR OVC009 03/02 A2973 RMK AO2 T00290015

FAA Disclaimer: The data displayed is for advisory purposes only and is not to be used for flight planning or operations.